sensor_id;sensor_type;location;lat;lon;timestamp;P1;durP1;ratioP1;P2;durP2;ratioP2
65971;SDS011;52726;48.852;9.152;2022-08-01T00:00:04;5.30;;;1.77;;
65971;SDS011;52726;48.852;9.152;2022-08-01T00:02:31;1.75;;;1.60;;
65971;SDS011;52726;48.852;9.152;2022-08-01T00:04:57;1.88;;;1.50;;
65971;SDS011;52726;48.852;9.152;2022-08-01T00:07:22;4.60;;;1.85;;
65971;SDS011;52726;48.852;9.152;2022-08-01T00:09:47;3.38;;;1.70;;
65971;SDS011;52726;48.852;9.152;2022-08-01T00:12:13;1.95;;;1.73;;
65971;SDS011;52726;48.852;9.152;2022-08-01T00:14:38;1.98;;;1.60;;
65971;SDS011;52726;48.852;9.152;2022-08-01T00:17:04;2.65;;;1.83;;
65971;SDS011;52726;48.852;9.152;2022-08-01T00:19:29;2.25;;;1.60;;
65971;SDS011;52726;48.852;9.152;2022-08-01T00:21:54;1.83;;;1.70;;
65971;SDS011;52726;48.852;9.152;2022-08-01T00:24:20;4.47;;;1.73;;
65971;SDS011;52726;48.852;9.152;2022-08-01T00:26:45;2.15;;;1.60;;
65971;SDS011;52726;48.852;9.152;2022-08-01T00:29:10;2.25;;;1.52;;
65971;SDS011;52726;48.852;9.152;2022-08-01T00:31:36;1.80;;;1.70;;
65971;SDS011;52726;48.852;9.152;2022-08-01T00:34:01;1.80;;;1.67;;
65971;SDS011;52726;48.852;9.152;2022-08-01T00:36:26;1.55;;;1.35;;
65971;SDS011;52726;48.852;9.152;2022-08-01T00:38:52;1.90;;;1.60;;
65971;SDS011;52726;48.852;9.152;2022-08-01T00:41:17;2.17;;;1.80;;
65971;SDS011;52726;48.852;9.152;2022-08-01T00:43:43;3.15;;;1.83;;
65971;SDS011;52726;48.852;9.152;2022-08-01T00:46:08;4.05;;;1.67;;
65971;SDS011;52726;48.852;9.152;2022-08-01T00:48:33;3.50;;;1.80;;
65971;SDS011;52726;48.852;9.152;2022-08-01T00:50:59;2.08;;;1.73;;
65971;SDS011;52726;48.852;9.152;2022-08-01T00:53:24;2.35;;;1.75;;
65971;SDS011;52726;48.852;9.152;2022-08-01T00:55:50;3.65;;;1.63;;
65971;SDS011;52726;48.852;9.152;2022-08-01T00:58:15;3.05;;;1.67;;
65971;SDS011;52726;48.852;9.152;2022-08-01T01:00:41;2.38;;;1.90;;
65971;SDS011;52726;48.852;9.152;2022-08-01T01:03:07;1.95;;;1.70;;
65971;SDS011;52726;48.852;9.152;2022-08-01T01:05:36;1.70;;;1.60;;
65971;SDS011;52726;48.852;9.152;2022-08-01T01:08:10;2.67;;;1.58;;
65971;SDS011;52726;48.852;9.152;2022-08-01T01:13:12;2.70;;;1.90;;
65971;SDS011;52726;48.852;9.152;2022-08-01T01:15:47;1.73;;;1.63;;
65971;SDS011;52726;48.852;9.152;2022-08-01T01:18:17;2.08;;;1.45;;
65971;SDS011;52726;48.852;9.152;2022-08-01T01:23:50;2.47;;;1.70;;
65971;SDS011;52726;48.852;9.152;2022-08-01T01:29:32;1.70;;;1.60;;
65971;SDS011;52726;48.852;9.152;2022-08-01T01:32:46;2.13;;;1.70;;
65971;SDS011;52726;48.852;9.152;2022-08-01T01:35:02;1.90;;;1.67;;
65971;SDS011;52726;48.852;9.152;2022-08-01T01:37:50;1.65;;;1.55;;
65971;SDS011;52726;48.852;9.152;2022-08-01T01:40:20;3.78;;;1.90;;
65971;SDS011;52726;48.852;9.152;2022-08-01T01:42:46;3.85;;;1.95;;
65971;SDS011;52726;48.852;9.152;2022-08-01T01:45:13;1.90;;;1.80;;
65971;SDS011;52726;48.852;9.152;2022-08-01T01:47:40;2.58;;;1.92;;
65971;SDS011;52726;48.852;9.152;2022-08-01T01:50:07;4.20;;;2.00;;
65971;SDS011;52726;48.852;9.152;2022-08-01T01:52:35;2.00;;;1.80;;
65971;SDS011;52726;48.852;9.152;2022-08-01T01:55:04;3.78;;;1.70;;
65971;SDS011;52726;48.852;9.152;2022-08-01T01:57:32;1.85;;;1.60;;
65971;SDS011;52726;48.852;9.152;2022-08-01T02:00:00;1.98;;;1.77;;
65971;SDS011;52726;48.852;9.152;2022-08-01T02:02:27;4.05;;;1.95;;
65971;SDS011;52726;48.852;9.152;2022-08-01T02:04:53;6.35;;;2.03;;
65971;SDS011;52726;48.852;9.152;2022-08-01T02:07:20;2.88;;;1.85;;
65971;SDS011;52726;48.852;9.152;2022-08-01T02:09:48;3.22;;;1.85;;
65971;SDS011;52726;48.852;9.152;2022-08-01T02:12:14;2.42;;;1.95;;
65971;SDS011;52726;48.852;9.152;2022-08-01T02:14:42;2.78;;;1.63;;
65971;SDS011;52726;48.852;9.152;2022-08-01T02:17:10;1.85;;;1.60;;
65971;SDS011;52726;48.852;9.152;2022-08-01T02:19:37;3.50;;;2.15;;
65971;SDS011;52726;48.852;9.152;2022-08-01T02:22:24;1.90;;;1.70;;
65971;SDS011;52726;48.852;9.152;2022-08-01T02:27:30;2.55;;;1.83;;
65971;SDS011;52726;48.852;9.152;2022-08-01T02:30:04;1.67;;;1.58;;
65971;SDS011;52726;48.852;9.152;2022-08-01T02:32:34;2.15;;;1.52;;
65971;SDS011;52726;48.852;9.152;2022-08-01T02:35:03;5.28;;;1.77;;
65971;SDS011;52726;48.852;9.152;2022-08-01T02:37:33;3.42;;;1.85;;
65971;SDS011;52726;48.852;9.152;2022-08-01T02:40:01;3.92;;;1.88;;
65971;SDS011;52726;48.852;9.152;2022-08-01T02:42:27;5.50;;;1.80;;
65971;SDS011;52726;48.852;9.152;2022-08-01T02:44:55;2.15;;;1.75;;
65971;SDS011;52726;48.852;9.152;2022-08-01T02:47:22;3.92;;;1.70;;
65971;SDS011;52726;48.852;9.152;2022-08-01T02:49:50;1.60;;;1.50;;
65971;SDS011;52726;48.852;9.152;2022-08-01T02:52:18;2.97;;;1.80;;
65971;SDS011;52726;48.852;9.152;2022-08-01T02:54:47;2.53;;;1.70;;
65971;SDS011;52726;48.852;9.152;2022-08-01T02:57:14;2.55;;;2.03;;
65971;SDS011;52726;48.852;9.152;2022-08-01T02:59:43;2.22;;;1.70;;
65971;SDS011;52726;48.852;9.152;2022-08-01T03:02:10;1.95;;;1.73;;
65971;SDS011;52726;48.852;9.152;2022-08-01T03:04:37;3.22;;;1.92;;
65971;SDS011;52726;48.852;9.152;2022-08-01T03:07:04;1.77;;;1.60;;
65971;SDS011;52726;48.852;9.152;2022-08-01T03:09:32;2.55;;;1.80;;
65971;SDS011;52726;48.852;9.152;2022-08-01T03:12:02;4.22;;;1.77;;
65971;SDS011;52726;48.852;9.152;2022-08-01T03:14:31;1.90;;;1.80;;
65971;SDS011;52726;48.852;9.152;2022-08-01T03:17:01;2.38;;;1.90;;
65971;SDS011;52726;48.852;9.152;2022-08-01T03:19:28;1.95;;;1.75;;
65971;SDS011;52726;48.852;9.152;2022-08-01T03:21:55;2.28;;;1.80;;
65971;SDS011;52726;48.852;9.152;2022-08-01T03:24:23;3.90;;;1.80;;
65971;SDS011;52726;48.852;9.152;2022-08-01T03:26:49;1.80;;;1.60;;
65971;SDS011;52726;48.852;9.152;2022-08-01T03:29:17;1.88;;;1.77;;
65971;SDS011;52726;48.852;9.152;2022-08-01T03:31:48;4.07;;;2.08;;
65971;SDS011;52726;48.852;9.152;2022-08-01T03:34:14;2.15;;;1.75;;
65971;SDS011;52726;48.852;9.152;2022-08-01T03:36:49;2.67;;;1.88;;
65971;SDS011;52726;48.852;9.152;2022-08-01T03:39:28;2.63;;;1.75;;
65971;SDS011;52726;48.852;9.152;2022-08-01T03:42:00;1.98;;;1.50;;
65971;SDS011;52726;48.852;9.152;2022-08-01T03:44:30;4.57;;;1.90;;
65971;SDS011;52726;48.852;9.152;2022-08-01T03:46:59;2.28;;;1.60;;
65971;SDS011;52726;48.852;9.152;2022-08-01T03:49:32;2.07;;;1.60;;
65971;SDS011;52726;48.852;9.152;2022-08-01T03:52:03;5.38;;;2.15;;
65971;SDS011;52726;48.852;9.152;2022-08-01T03:54:33;3.85;;;1.90;;
65971;SDS011;52726;48.852;9.152;2022-08-01T03:57:01;3.45;;;1.90;;
65971;SDS011;52726;48.852;9.152;2022-08-01T03:59:27;5.55;;;2.20;;
65971;SDS011;52726;48.852;9.152;2022-08-01T04:01:55;4.55;;;1.88;;
65971;SDS011;52726;48.852;9.152;2022-08-01T04:04:21;3.97;;;1.67;;
65971;SDS011;52726;48.852;9.152;2022-08-01T04:06:46;3.33;;;1.70;;
65971;SDS011;52726;48.852;9.152;2022-08-01T04:09:15;2.00;;;1.83;;
65971;SDS011;52726;48.852;9.152;2022-08-01T04:11:40;3.45;;;2.10;;
65971;SDS011;52726;48.852;9.152;2022-08-01T04:14:06;4.47;;;1.85;;
65971;SDS011;52726;48.852;9.152;2022-08-01T04:16:31;3.60;;;1.83;;
65971;SDS011;52726;48.852;9.152;2022-08-01T04:18:57;2.92;;;1.77;;
65971;SDS011;52726;48.852;9.152;2022-08-01T04:21:23;3.20;;;1.80;;
65971;SDS011;52726;48.852;9.152;2022-08-01T04:23:52;4.60;;;2.00;;
65971;SDS011;52726;48.852;9.152;2022-08-01T04:26:21;1.80;;;1.70;;
65971;SDS011;52726;48.852;9.152;2022-08-01T04:28:47;1.55;;;1.45;;
65971;SDS011;52726;48.852;9.152;2022-08-01T04:31:15;2.92;;;1.80;;
65971;SDS011;52726;48.852;9.152;2022-08-01T04:33:43;2.42;;;1.80;;
65971;SDS011;52726;48.852;9.152;2022-08-01T04:36:12;1.73;;;1.60;;
65971;SDS011;52726;48.852;9.152;2022-08-01T04:38:40;2.05;;;1.70;;
65971;SDS011;52726;48.852;9.152;2022-08-01T04:41:11;2.67;;;1.73;;
65971;SDS011;52726;48.852;9.152;2022-08-01T04:43:37;2.40;;;1.90;;
65971;SDS011;52726;48.852;9.152;2022-08-01T04:46:03;3.85;;;1.90;;
65971;SDS011;52726;48.852;9.152;2022-08-01T04:48:31;2.47;;;1.98;;
65971;SDS011;52726;48.852;9.152;2022-08-01T04:50:57;4.20;;;1.60;;
65971;SDS011;52726;48.852;9.152;2022-08-01T04:53:23;4.20;;;1.80;;
65971;SDS011;52726;48.852;9.152;2022-08-01T04:55:48;2.25;;;1.77;;
65971;SDS011;52726;48.852;9.152;2022-08-01T04:58:15;3.13;;;1.60;;
65971;SDS011;52726;48.852;9.152;2022-08-01T05:00:40;2.28;;;1.98;;
65971;SDS011;52726;48.852;9.152;2022-08-01T05:03:05;2.38;;;2.13;;
65971;SDS011;52726;48.852;9.152;2022-08-01T05:05:31;5.03;;;1.60;;
65971;SDS011;52726;48.852;9.152;2022-08-01T05:07:57;4.53;;;1.70;;
65971;SDS011;52726;48.852;9.152;2022-08-01T05:10:22;2.28;;;1.70;;
65971;SDS011;52726;48.852;9.152;2022-08-01T05:12:47;4.00;;;1.90;;
65971;SDS011;52726;48.852;9.152;2022-08-01T05:15:13;4.95;;;1.60;;
65971;SDS011;52726;48.852;9.152;2022-08-01T05:17:38;2.55;;;1.70;;
65971;SDS011;52726;48.852;9.152;2022-08-01T05:20:04;2.40;;;1.75;;
65971;SDS011;52726;48.852;9.152;2022-08-01T05:22:31;3.95;;;1.55;;
65971;SDS011;52726;48.852;9.152;2022-08-01T05:24:57;2.50;;;1.65;;
65971;SDS011;52726;48.852;9.152;2022-08-01T05:27:22;2.40;;;1.58;;
65971;SDS011;52726;48.852;9.152;2022-08-01T05:29:47;1.60;;;1.50;;
65971;SDS011;52726;48.852;9.152;2022-08-01T05:32:13;2.90;;;1.60;;
65971;SDS011;52726;48.852;9.152;2022-08-01T05:34:38;2.90;;;1.73;;
65971;SDS011;52726;48.852;9.152;2022-08-01T05:37:03;3.92;;;1.70;;
65971;SDS011;52726;48.852;9.152;2022-08-01T05:39:29;3.10;;;1.60;;
65971;SDS011;52726;48.852;9.152;2022-08-01T05:41:55;4.63;;;1.52;;
65971;SDS011;52726;48.852;9.152;2022-08-01T05:44:20;1.73;;;1.50;;
65971;SDS011;52726;48.852;9.152;2022-08-01T05:46:46;1.73;;;1.38;;
65971;SDS011;52726;48.852;9.152;2022-08-01T05:49:11;1.75;;;1.60;;
65971;SDS011;52726;48.852;9.152;2022-08-01T05:51:36;1.52;;;1.42;;
65971;SDS011;52726;48.852;9.152;2022-08-01T05:54:02;1.83;;;1.52;;
65971;SDS011;52726;48.852;9.152;2022-08-01T05:56:27;2.75;;;1.40;;
65971;SDS011;52726;48.852;9.152;2022-08-01T05:58:53;3.75;;;2.22;;
65971;SDS011;52726;48.852;9.152;2022-08-01T06:01:18;4.07;;;1.88;;
65971;SDS011;52726;48.852;9.152;2022-08-01T06:03:44;6.85;;;1.92;;
65971;SDS011;52726;48.852;9.152;2022-08-01T06:06:10;1.48;;;1.38;;
65971;SDS011;52726;48.852;9.152;2022-08-01T06:08:35;3.20;;;1.58;;
65971;SDS011;52726;48.852;9.152;2022-08-01T06:11:00;3.58;;;1.75;;
65971;SDS011;52726;48.852;9.152;2022-08-01T06:13:26;1.30;;;1.20;;
65971;SDS011;52726;48.852;9.152;2022-08-01T06:15:52;2.30;;;1.50;;
65971;SDS011;52726;48.852;9.152;2022-08-01T06:18:17;4.00;;;1.58;;
65971;SDS011;52726;48.852;9.152;2022-08-01T06:20:43;2.00;;;1.20;;
65971;SDS011;52726;48.852;9.152;2022-08-01T06:23:09;1.30;;;1.20;;
65971;SDS011;52726;48.852;9.152;2022-08-01T06:25:34;6.05;;;1.40;;
65971;SDS011;52726;48.852;9.152;2022-08-01T06:28:00;2.08;;;1.48;;
65971;SDS011;52726;48.852;9.152;2022-08-01T06:30:26;1.23;;;1.23;;
65971;SDS011;52726;48.852;9.152;2022-08-01T06:32:51;4.35;;;1.85;;
65971;SDS011;52726;48.852;9.152;2022-08-01T06:35:17;2.08;;;1.25;;
65971;SDS011;52726;48.852;9.152;2022-08-01T06:37:42;2.10;;;1.20;;
65971;SDS011;52726;48.852;9.152;2022-08-01T06:40:10;1.85;;;1.35;;
65971;SDS011;52726;48.852;9.152;2022-08-01T06:42:36;1.95;;;1.23;;
65971;SDS011;52726;48.852;9.152;2022-08-01T06:45:03;1.83;;;1.30;;
65971;SDS011;52726;48.852;9.152;2022-08-01T06:47:29;1.92;;;1.08;;
65971;SDS011;52726;48.852;9.152;2022-08-01T06:49:55;2.28;;;1.20;;
65971;SDS011;52726;48.852;9.152;2022-08-01T06:52:20;1.55;;;1.10;;
65971;SDS011;52726;48.852;9.152;2022-08-01T06:54:45;1.50;;;1.23;;
65971;SDS011;52726;48.852;9.152;2022-08-01T06:57:11;1.00;;;1.00;;
65971;SDS011;52726;48.852;9.152;2022-08-01T06:59:36;1.40;;;1.17;;
65971;SDS011;52726;48.852;9.152;2022-08-01T07:02:02;1.13;;;0.82;;
65971;SDS011;52726;48.852;9.152;2022-08-01T07:04:27;3.03;;;1.30;;
65971;SDS011;52726;48.852;9.152;2022-08-01T07:06:52;2.47;;;1.17;;
65971;SDS011;52726;48.852;9.152;2022-08-01T07:09:18;2.50;;;1.10;;
65971;SDS011;52726;48.852;9.152;2022-08-01T07:11:43;2.00;;;1.33;;
65971;SDS011;52726;48.852;9.152;2022-08-01T07:14:08;1.20;;;0.93;;
65971;SDS011;52726;48.852;9.152;2022-08-01T07:16:34;1.83;;;1.13;;
65971;SDS011;52726;48.852;9.152;2022-08-01T07:18:59;2.20;;;1.23;;
65971;SDS011;52726;48.852;9.152;2022-08-01T07:21:24;2.05;;;0.98;;
65971;SDS011;52726;48.852;9.152;2022-08-01T07:23:50;5.57;;;1.27;;
65971;SDS011;52726;48.852;9.152;2022-08-01T07:26:15;1.90;;;1.23;;
65971;SDS011;52726;48.852;9.152;2022-08-01T07:28:41;4.47;;;1.17;;
65971;SDS011;52726;48.852;9.152;2022-08-01T07:31:06;1.65;;;1.20;;
65971;SDS011;52726;48.852;9.152;2022-08-01T07:33:31;2.10;;;1.27;;
65971;SDS011;52726;48.852;9.152;2022-08-01T07:35:57;2.10;;;1.55;;
65971;SDS011;52726;48.852;9.152;2022-08-01T07:38:22;1.48;;;1.10;;
65971;SDS011;52726;48.852;9.152;2022-08-01T07:40:47;1.83;;;1.10;;
65971;SDS011;52726;48.852;9.152;2022-08-01T07:43:13;1.27;;;1.02;;
65971;SDS011;52726;48.852;9.152;2022-08-01T07:45:38;1.25;;;1.15;;
65971;SDS011;52726;48.852;9.152;2022-08-01T07:48:06;1.48;;;1.30;;
65971;SDS011;52726;48.852;9.152;2022-08-01T07:50:32;1.20;;;1.10;;
65971;SDS011;52726;48.852;9.152;2022-08-01T07:52:57;2.35;;;1.15;;
65971;SDS011;52726;48.852;9.152;2022-08-01T07:55:23;1.45;;;1.30;;
65971;SDS011;52726;48.852;9.152;2022-08-01T07:57:48;2.38;;;1.58;;
65971;SDS011;52726;48.852;9.152;2022-08-01T08:00:14;2.38;;;1.30;;
65971;SDS011;52726;48.852;9.152;2022-08-01T08:02:39;1.58;;;1.17;;
65971;SDS011;52726;48.852;9.152;2022-08-01T08:05:05;2.30;;;1.25;;
65971;SDS011;52726;48.852;9.152;2022-08-01T08:07:32;1.85;;;1.48;;
65971;SDS011;52726;48.852;9.152;2022-08-01T08:09:57;5.15;;;1.65;;
65971;SDS011;52726;48.852;9.152;2022-08-01T08:12:23;2.28;;;1.27;;
65971;SDS011;52726;48.852;9.152;2022-08-01T08:14:48;6.15;;;1.58;;
65971;SDS011;52726;48.852;9.152;2022-08-01T08:17:14;2.10;;;1.10;;
65971;SDS011;52726;48.852;9.152;2022-08-01T08:19:39;7.38;;;1.77;;
65971;SDS011;52726;48.852;9.152;2022-08-01T08:22:06;1.33;;;1.23;;
65971;SDS011;52726;48.852;9.152;2022-08-01T08:24:32;1.52;;;1.30;;
65971;SDS011;52726;48.852;9.152;2022-08-01T08:26:59;2.17;;;1.35;;
65971;SDS011;52726;48.852;9.152;2022-08-01T08:29:26;1.70;;;1.40;;
65971;SDS011;52726;48.852;9.152;2022-08-01T08:31:55;4.82;;;1.50;;
65971;SDS011;52726;48.852;9.152;2022-08-01T08:34:21;7.43;;;1.65;;
65971;SDS011;52726;48.852;9.152;2022-08-01T08:36:47;5.22;;;1.75;;
65971;SDS011;52726;48.852;9.152;2022-08-01T08:39:13;4.53;;;1.35;;
65971;SDS011;52726;48.852;9.152;2022-08-01T08:41:40;1.80;;;1.40;;
65971;SDS011;52726;48.852;9.152;2022-08-01T08:44:06;5.05;;;1.58;;
65971;SDS011;52726;48.852;9.152;2022-08-01T08:46:33;1.50;;;1.38;;
65971;SDS011;52726;48.852;9.152;2022-08-01T08:49:03;1.25;;;1.17;;
65971;SDS011;52726;48.852;9.152;2022-08-01T08:51:30;4.25;;;1.45;;
65971;SDS011;52726;48.852;9.152;2022-08-01T08:53:57;1.92;;;1.40;;
65971;SDS011;52726;48.852;9.152;2022-08-01T08:56:24;5.03;;;1.50;;
65971;SDS011;52726;48.852;9.152;2022-08-01T08:58:50;3.47;;;1.50;;
65971;SDS011;52726;48.852;9.152;2022-08-01T09:01:16;3.17;;;1.63;;
65971;SDS011;52726;48.852;9.152;2022-08-01T09:03:43;3.83;;;1.70;;
65971;SDS011;52726;48.852;9.152;2022-08-01T09:06:08;5.50;;;1.75;;
65971;SDS011;52726;48.852;9.152;2022-08-01T09:08:34;2.70;;;1.65;;
65971;SDS011;52726;48.852;9.152;2022-08-01T09:11:00;3.22;;;1.80;;
65971;SDS011;52726;48.852;9.152;2022-08-01T09:13:25;5.80;;;1.98;;
65971;SDS011;52726;48.852;9.152;2022-08-01T09:15:51;4.80;;;1.80;;
65971;SDS011;52726;48.852;9.152;2022-08-01T09:26:11;2.88;;;1.80;;
65971;SDS011;52726;48.852;9.152;2022-08-01T09:28:38;5.28;;;2.30;;
65971;SDS011;52726;48.852;9.152;2022-08-01T09:31:09;3.85;;;2.25;;
65971;SDS011;52726;48.852;9.152;2022-08-01T09:33:49;3.88;;;2.40;;
65971;SDS011;52726;48.852;9.152;2022-08-01T09:36:16;5.60;;;2.30;;
65971;SDS011;52726;48.852;9.152;2022-08-01T09:38:42;7.28;;;2.40;;
65971;SDS011;52726;48.852;9.152;2022-08-01T09:41:08;4.18;;;2.63;;
65971;SDS011;52726;48.852;9.152;2022-08-01T09:43:33;4.50;;;2.55;;
65971;SDS011;52726;48.852;9.152;2022-08-01T09:45:59;4.65;;;2.47;;
65971;SDS011;52726;48.852;9.152;2022-08-01T09:48:29;6.45;;;2.38;;
65971;SDS011;52726;48.852;9.152;2022-08-01T09:50:57;5.95;;;2.50;;
65971;SDS011;52726;48.852;9.152;2022-08-01T09:53:23;5.97;;;2.47;;
65971;SDS011;52726;48.852;9.152;2022-08-01T09:55:49;5.20;;;2.38;;
65971;SDS011;52726;48.852;9.152;2022-08-01T09:58:17;6.10;;;2.30;;
65971;SDS011;52726;48.852;9.152;2022-08-01T10:00:43;2.55;;;2.20;;
65971;SDS011;52726;48.852;9.152;2022-08-01T10:03:25;2.70;;;2.50;;
65971;SDS011;52726;48.852;9.152;2022-08-01T10:05:51;3.33;;;1.98;;
65971;SDS011;52726;48.852;9.152;2022-08-01T10:08:18;4.18;;;2.30;;
65971;SDS011;52726;48.852;9.152;2022-08-01T10:13:32;3.30;;;1.92;;
65971;SDS011;52726;48.852;9.152;2022-08-01T10:15:58;3.20;;;1.90;;
65971;SDS011;52726;48.852;9.152;2022-08-01T10:18:25;4.80;;;1.67;;
65971;SDS011;52726;48.852;9.152;2022-08-01T10:20:51;3.83;;;1.70;;
65971;SDS011;52726;48.852;9.152;2022-08-01T10:23:17;1.95;;;1.75;;
65971;SDS011;52726;48.852;9.152;2022-08-01T10:25:43;2.33;;;1.70;;
65971;SDS011;52726;48.852;9.152;2022-08-01T10:28:14;1.70;;;1.60;;
65971;SDS011;52726;48.852;9.152;2022-08-01T10:30:43;2.55;;;1.60;;
65971;SDS011;52726;48.852;9.152;2022-08-01T10:33:10;1.90;;;1.70;;
65971;SDS011;52726;48.852;9.152;2022-08-01T10:35:36;2.40;;;1.45;;
65971;SDS011;52726;48.852;9.152;2022-08-01T10:38:04;2.05;;;1.55;;
65971;SDS011;52726;48.852;9.152;2022-08-01T10:40:30;3.75;;;1.58;;
65971;SDS011;52726;48.852;9.152;2022-08-01T10:42:56;2.97;;;1.45;;
65971;SDS011;52726;48.852;9.152;2022-08-01T10:45:21;1.58;;;1.42;;
65971;SDS011;52726;48.852;9.152;2022-08-01T10:50:38;3.00;;;1.70;;
65971;SDS011;52726;48.852;9.152;2022-08-01T10:55:44;3.00;;;1.80;;
65971;SDS011;52726;48.852;9.152;2022-08-01T11:01:15;1.90;;;1.80;;
65971;SDS011;52726;48.852;9.152;2022-08-01T11:03:44;1.58;;;1.48;;
65971;SDS011;52726;48.852;9.152;2022-08-01T11:06:24;4.53;;;2.00;;
65971;SDS011;52726;48.852;9.152;2022-08-01T11:08:52;2.17;;;1.50;;
65971;SDS011;52726;48.852;9.152;2022-08-01T11:11:19;1.70;;;1.60;;
65971;SDS011;52726;48.852;9.152;2022-08-01T11:16:27;1.70;;;1.60;;
65971;SDS011;52726;48.852;9.152;2022-08-01T11:18:54;2.50;;;2.00;;
65971;SDS011;52726;48.852;9.152;2022-08-01T11:21:19;3.83;;;1.85;;
65971;SDS011;52726;48.852;9.152;2022-08-01T11:23:49;3.58;;;2.08;;
65971;SDS011;52726;48.852;9.152;2022-08-01T11:26:18;1.58;;;1.45;;
65971;SDS011;52726;48.852;9.152;2022-08-01T11:28:45;3.33;;;1.92;;
65971;SDS011;52726;48.852;9.152;2022-08-01T11:31:31;2.78;;;1.70;;
65971;SDS011;52726;48.852;9.152;2022-08-01T11:33:57;3.22;;;1.98;;
65971;SDS011;52726;48.852;9.152;2022-08-01T11:36:23;8.00;;;1.83;;
65971;SDS011;52726;48.852;9.152;2022-08-01T11:39:04;2.28;;;1.80;;
65971;SDS011;52726;48.852;9.152;2022-08-01T11:41:35;2.85;;;1.83;;
65971;SDS011;52726;48.852;9.152;2022-08-01T11:44:11;1.73;;;1.30;;
65971;SDS011;52726;48.852;9.152;2022-08-01T11:54:36;2.28;;;2.00;;
65971;SDS011;52726;48.852;9.152;2022-08-01T11:59:43;4.65;;;1.80;;
65971;SDS011;52726;48.852;9.152;2022-08-01T12:02:20;5.45;;;2.05;;
65971;SDS011;52726;48.852;9.152;2022-08-01T12:04:48;2.25;;;2.03;;
65971;SDS011;52726;48.852;9.152;2022-08-01T12:07:25;2.05;;;1.80;;
65971;SDS011;52726;48.852;9.152;2022-08-01T12:10:06;2.85;;;1.75;;
65971;SDS011;52726;48.852;9.152;2022-08-01T12:12:33;1.80;;;1.70;;
65971;SDS011;52726;48.852;9.152;2022-08-01T12:15:01;1.85;;;1.63;;
65971;SDS011;52726;48.852;9.152;2022-08-01T12:17:31;3.38;;;1.63;;
65971;SDS011;52726;48.852;9.152;2022-08-01T12:19:59;1.75;;;1.60;;
65971;SDS011;52726;48.852;9.152;2022-08-01T12:22:24;3.67;;;1.60;;
65971;SDS011;52726;48.852;9.152;2022-08-01T12:24:50;2.97;;;1.70;;
65971;SDS011;52726;48.852;9.152;2022-08-01T12:27:23;3.17;;;1.77;;
65971;SDS011;52726;48.852;9.152;2022-08-01T12:29:50;2.92;;;1.73;;
65971;SDS011;52726;48.852;9.152;2022-08-01T12:32:29;2.83;;;1.70;;
65971;SDS011;52726;48.852;9.152;2022-08-01T12:34:58;1.55;;;1.45;;
65971;SDS011;52726;48.852;9.152;2022-08-01T12:37:29;3.13;;;1.80;;
65971;SDS011;52726;48.852;9.152;2022-08-01T12:39:55;3.30;;;1.90;;
65971;SDS011;52726;48.852;9.152;2022-08-01T12:42:21;3.53;;;1.70;;
65971;SDS011;52726;48.852;9.152;2022-08-01T12:44:48;2.97;;;1.77;;
65971;SDS011;52726;48.852;9.152;2022-08-01T12:47:16;2.20;;;1.67;;
65971;SDS011;52726;48.852;9.152;2022-08-01T12:49:43;3.72;;;1.42;;
65971;SDS011;52726;48.852;9.152;2022-08-01T12:52:10;4.07;;;1.70;;
65971;SDS011;52726;48.852;9.152;2022-08-01T12:57:31;2.85;;;1.35;;
65971;SDS011;52726;48.852;9.152;2022-08-01T13:00:07;2.95;;;1.80;;
65971;SDS011;52726;48.852;9.152;2022-08-01T13:02:35;2.03;;;1.50;;
65971;SDS011;52726;48.852;9.152;2022-08-01T13:05:00;3.03;;;1.50;;
65971;SDS011;52726;48.852;9.152;2022-08-01T13:07:37;1.75;;;1.50;;
65971;SDS011;52726;48.852;9.152;2022-08-01T13:10:10;3.75;;;1.83;;
65971;SDS011;52726;48.852;9.152;2022-08-01T13:12:36;5.68;;;1.70;;
65971;SDS011;52726;48.852;9.152;2022-08-01T13:15:22;2.03;;;1.80;;
65971;SDS011;52726;48.852;9.152;2022-08-01T13:17:50;3.30;;;1.67;;
65971;SDS011;52726;48.852;9.152;2022-08-01T13:20:23;2.50;;;1.50;;
65971;SDS011;52726;48.852;9.152;2022-08-01T13:22:54;1.40;;;1.30;;
65971;SDS011;52726;48.852;9.152;2022-08-01T13:25:20;3.47;;;1.70;;
65971;SDS011;52726;48.852;9.152;2022-08-01T13:27:46;1.70;;;1.50;;
65971;SDS011;52726;48.852;9.152;2022-08-01T13:30:12;2.45;;;1.40;;
65971;SDS011;52726;48.852;9.152;2022-08-01T13:32:39;3.78;;;1.55;;
65971;SDS011;52726;48.852;9.152;2022-08-01T13:35:06;2.35;;;1.55;;
65971;SDS011;52726;48.852;9.152;2022-08-01T13:37:33;2.45;;;1.20;;
65971;SDS011;52726;48.852;9.152;2022-08-01T13:39:58;1.25;;;1.17;;
65971;SDS011;52726;48.852;9.152;2022-08-01T13:42:23;2.95;;;1.55;;
65971;SDS011;52726;48.852;9.152;2022-08-01T13:44:49;6.32;;;1.60;;
65971;SDS011;52726;48.852;9.152;2022-08-01T13:47:14;1.50;;;1.30;;
65971;SDS011;52726;48.852;9.152;2022-08-01T13:49:40;3.83;;;1.45;;
65971;SDS011;52726;48.852;9.152;2022-08-01T13:52:05;1.50;;;1.40;;
65971;SDS011;52726;48.852;9.152;2022-08-01T13:54:31;3.00;;;1.60;;
65971;SDS011;52726;48.852;9.152;2022-08-01T13:56:56;2.72;;;1.70;;
65971;SDS011;52726;48.852;9.152;2022-08-01T13:59:22;3.53;;;1.40;;
65971;SDS011;52726;48.852;9.152;2022-08-01T14:01:47;1.70;;;1.60;;
65971;SDS011;52726;48.852;9.152;2022-08-01T14:04:12;1.40;;;1.30;;
65971;SDS011;52726;48.852;9.152;2022-08-01T14:06:38;2.28;;;1.40;;
65971;SDS011;52726;48.852;9.152;2022-08-01T14:09:04;1.58;;;1.48;;
65971;SDS011;52726;48.852;9.152;2022-08-01T14:11:29;6.38;;;1.67;;
65971;SDS011;52726;48.852;9.152;2022-08-01T14:13:56;1.67;;;1.58;;
65971;SDS011;52726;48.852;9.152;2022-08-01T14:16:21;2.17;;;1.83;;
65971;SDS011;52726;48.852;9.152;2022-08-01T14:18:48;3.15;;;1.20;;
65971;SDS011;52726;48.852;9.152;2022-08-01T14:21:13;6.47;;;1.60;;
65971;SDS011;52726;48.852;9.152;2022-08-01T14:23:39;6.35;;;1.50;;
65971;SDS011;52726;48.852;9.152;2022-08-01T14:26:05;1.98;;;1.40;;
65971;SDS011;52726;48.852;9.152;2022-08-01T14:28:31;3.22;;;1.45;;
65971;SDS011;52726;48.852;9.152;2022-08-01T14:30:57;6.03;;;1.50;;
65971;SDS011;52726;48.852;9.152;2022-08-01T14:33:22;1.48;;;1.20;;
65971;SDS011;52726;48.852;9.152;2022-08-01T14:35:48;1.65;;;1.55;;
65971;SDS011;52726;48.852;9.152;2022-08-01T14:38:13;1.45;;;1.35;;
65971;SDS011;52726;48.852;9.152;2022-08-01T14:40:39;2.05;;;1.50;;
65971;SDS011;52726;48.852;9.152;2022-08-01T14:43:05;3.80;;;1.65;;
65971;SDS011;52726;48.852;9.152;2022-08-01T14:45:31;1.75;;;1.38;;
65971;SDS011;52726;48.852;9.152;2022-08-01T14:47:57;4.38;;;1.30;;
65971;SDS011;52726;48.852;9.152;2022-08-01T14:50:23;2.95;;;1.52;;
65971;SDS011;52726;48.852;9.152;2022-08-01T14:52:51;1.35;;;1.20;;
65971;SDS011;52726;48.852;9.152;2022-08-01T14:55:17;3.10;;;1.75;;
65971;SDS011;52726;48.852;9.152;2022-08-01T14:57:43;1.88;;;1.60;;
65971;SDS011;52726;48.852;9.152;2022-08-01T15:00:09;2.95;;;1.55;;
65971;SDS011;52726;48.852;9.152;2022-08-01T15:02:37;3.63;;;1.60;;
65971;SDS011;52726;48.852;9.152;2022-08-01T15:05:03;1.48;;;1.35;;
65971;SDS011;52726;48.852;9.152;2022-08-01T15:07:28;1.48;;;1.38;;
65971;SDS011;52726;48.852;9.152;2022-08-01T15:09:54;1.63;;;1.40;;
65971;SDS011;52726;48.852;9.152;2022-08-01T15:12:19;1.50;;;1.40;;
65971;SDS011;52726;48.852;9.152;2022-08-01T15:14:44;3.13;;;1.45;;
65971;SDS011;52726;48.852;9.152;2022-08-01T15:17:13;2.83;;;1.40;;
65971;SDS011;52726;48.852;9.152;2022-08-01T15:19:43;1.42;;;1.33;;
65971;SDS011;52726;48.852;9.152;2022-08-01T15:22:10;3.83;;;1.55;;
65971;SDS011;52726;48.852;9.152;2022-08-01T15:24:35;2.50;;;1.45;;
65971;SDS011;52726;48.852;9.152;2022-08-01T15:27:00;1.45;;;1.30;;
65971;SDS011;52726;48.852;9.152;2022-08-01T15:29:26;1.42;;;1.33;;
65971;SDS011;52726;48.852;9.152;2022-08-01T15:31:51;1.55;;;1.30;;
65971;SDS011;52726;48.852;9.152;2022-08-01T15:34:16;3.80;;;1.10;;